createdAt,value
2019-02-08T00:00:55.656Z,6.98
2019-02-08T00:03:41.049Z,7.00
2019-02-08T00:06:32.032Z,6.95
2019-02-08T00:09:35.130Z,7.03
2019-02-08T00:12:26.008Z,7.05
2019-02-08T00:15:09.785Z,6.97
2019-02-08T00:18:00.826Z,6.88
2019-02-08T00:20:44.586Z,6.84
2019-02-08T00:23:35.499Z,6.88
2019-02-08T00:26:19.335Z,6.89
2019-02-08T00:29:10.200Z,6.89
2019-02-08T00:31:53.899Z,6.88
2019-02-08T00:34:44.785Z,6.89
2019-02-08T00:37:28.110Z,6.87
2019-02-08T00:40:19.210Z,6.95
2019-02-08T00:43:02.624Z,6.81
2019-02-08T00:45:53.533Z,6.76
2019-02-08T00:48:36.958Z,6.79
2019-02-08T00:51:28.045Z,6.91
2019-02-08T00:54:11.754Z,6.89
2019-02-08T00:57:02.687Z,6.79
2019-02-08T00:59:45.804Z,6.78
2019-02-08T01:02:36.792Z,6.82
2019-02-08T01:05:39.777Z,6.91
2019-02-08T01:08:30.689Z,6.75
2019-02-08T01:11:13.817Z,6.69
2019-02-08T01:13:57.897Z,6.79
2019-02-08T01:16:49.117Z,6.75
2019-02-08T01:19:34.149Z,6.71
2019-02-08T01:22:26.697Z,6.66
2019-02-08T01:25:13.164Z,6.53
2019-02-08T01:28:05.755Z,6.65
2019-02-08T01:30:51.159Z,6.67
2019-02-08T01:33:43.756Z,6.66
2019-02-08T01:36:29.208Z,6.64
2019-02-08T01:39:21.807Z,6.60
2019-02-08T01:42:07.506Z,6.60
2019-02-08T01:45:10.535Z,6.57
2019-02-08T01:48:20.840Z,6.56
2019-02-08T01:51:23.660Z,6.58
2019-02-08T01:54:33.913Z,6.67
2019-02-08T01:57:37.176Z,6.59
2019-02-08T02:00:40.312Z,6.58
2019-02-08T02:03:42.993Z,6.60
2019-02-08T02:06:53.231Z,6.48
2019-02-08T02:09:56.049Z,6.57
2019-02-08T02:13:06.765Z,6.61
2019-02-08T02:16:09.307Z,6.49
2019-02-08T02:19:19.621Z,6.51
2019-02-08T02:22:23.021Z,6.57
2019-02-08T02:25:33.272Z,6.58
2019-02-08T02:28:36.562Z,6.62
2019-02-08T02:31:39.540Z,6.67
2019-02-08T02:34:49.786Z,6.54
2019-02-08T02:37:52.279Z,6.73
2019-02-08T02:41:02.548Z,6.64
2019-02-08T02:44:05.423Z,6.65
2019-02-08T02:47:15.669Z,6.68
2019-02-08T02:50:19.113Z,6.80
2019-02-08T02:53:29.333Z,6.78
2019-02-08T02:56:32.188Z,6.84
2019-02-08T02:59:42.438Z,6.77
2019-02-08T03:02:45.922Z,6.90
2019-02-08T03:05:56.199Z,6.75
2019-02-08T03:08:59.865Z,6.76
2019-02-08T03:12:10.133Z,6.80
2019-02-08T03:15:14.329Z,6.84
2019-02-08T03:18:24.560Z,6.73
2019-02-08T03:21:27.187Z,6.75
2019-02-08T03:24:37.482Z,6.71
2019-02-08T03:27:40.046Z,6.76
2019-02-08T03:34:18.437Z,6.66
2019-02-08T03:37:28.716Z,6.72
2019-02-08T03:40:31.678Z,6.72
2019-02-08T03:43:41.928Z,6.66
2019-02-08T03:46:44.816Z,6.66
2019-02-08T03:49:47.689Z,6.67
2019-02-08T03:52:57.944Z,6.69
2019-02-08T03:56:01.034Z,6.68
2019-02-08T03:59:11.294Z,6.68
2019-02-08T04:02:15.644Z,6.67
2019-02-08T04:05:26.145Z,6.74
2019-02-08T04:08:29.049Z,6.79
2019-02-08T04:11:31.976Z,6.77
2019-02-08T04:14:34.976Z,6.78
2019-02-08T04:17:45.368Z,6.79
2019-02-08T04:20:48.695Z,6.67
2019-02-08T04:23:58.988Z,6.76
2019-02-08T04:27:02.395Z,6.64
2019-02-08T04:30:29.767Z,6.71
2019-02-08T04:33:40.076Z,6.76
2019-02-08T04:36:43.170Z,6.75
2019-02-08T04:42:36.208Z,6.74
2019-02-08T04:45:27.145Z,6.76
2019-02-08T04:48:10.738Z,6.75
2019-02-08T04:51:01.653Z,6.66
2019-02-08T04:53:45.734Z,6.71
2019-02-08T04:56:16.972Z,6.75
2019-02-08T04:59:07.338Z,6.73
2019-02-08T05:01:50.501Z,6.74
2019-02-08T05:04:40.842Z,6.82
2019-02-08T05:07:23.564Z,6.90
2019-02-08T05:13:42.957Z,6.84
2019-02-08T05:16:33.315Z,6.67
2019-02-08T05:19:16.649Z,6.67
2019-02-08T05:22:07.086Z,6.57
2019-02-08T05:24:49.831Z,6.61
2019-02-08T05:27:40.238Z,6.56
2019-02-08T05:30:27.598Z,6.47
2019-02-08T05:33:17.953Z,6.32
2019-02-08T05:36:01.135Z,6.42
2019-02-08T05:38:51.788Z,6.30
2019-02-08T05:41:34.754Z,6.32
2019-02-08T05:44:25.120Z,6.41
2019-02-08T05:47:08.288Z,6.39
2019-02-08T05:49:58.667Z,6.29
2019-02-08T05:52:41.428Z,6.34
2019-02-08T05:59:07.832Z,6.35
2019-02-08T06:01:50.442Z,6.39
2019-02-08T06:04:40.809Z,6.37
2019-02-08T06:07:25.539Z,6.40
2019-02-08T06:10:16.023Z,6.43
2019-02-08T06:12:59.334Z,6.38
2019-02-08T06:15:42.425Z,6.47
2019-02-08T06:18:32.753Z,6.47
2019-02-08T06:21:15.769Z,6.50
2019-02-08T06:24:06.245Z,6.60
2019-02-08T06:26:49.495Z,6.57
2019-02-08T06:29:39.861Z,6.62
2019-02-08T06:32:23.195Z,6.47
2019-02-08T06:38:35.594Z,6.63
2019-02-08T06:41:18.588Z,6.70
2019-02-08T06:44:08.948Z,6.59
2019-02-08T06:46:51.516Z,6.61
2019-02-08T06:49:41.853Z,6.68
2019-02-08T06:52:25.228Z,6.73
2019-02-08T06:55:15.603Z,6.75
2019-02-08T06:58:17.727Z,6.70
2019-02-08T07:01:27.410Z,6.70
2019-02-08T07:04:29.516Z,6.75
2019-02-08T07:07:29.164Z,6.82
2019-02-08T07:10:20.559Z,6.89
2019-02-08T07:13:29.798Z,6.84
2019-02-08T07:16:31.800Z,6.91
2019-02-08T07:19:41.028Z,6.94
2019-02-08T07:22:42.467Z,6.94
2019-02-08T07:25:44.412Z,6.97
2019-02-08T07:28:43.221Z,7.01
2019-02-08T07:31:40.095Z,7.01
2019-02-08T07:34:49.290Z,6.96
2019-02-08T07:48:00.657Z,7.08
2019-02-08T07:51:09.872Z,7.03
2019-02-08T07:54:07.918Z,7.17
2019-02-08T07:57:17.186Z,7.16
2019-02-08T08:00:07.460Z,7.15
2019-02-08T08:03:08.276Z,7.16
2019-02-08T08:06:25.529Z,7.21
2019-02-08T08:09:28.769Z,7.27
2019-02-08T08:12:38.420Z,7.29
2019-02-08T08:15:56.724Z,7.30
2019-02-08T08:22:33.945Z,7.29
2019-02-08T08:26:03.836Z,7.39
2019-02-08T08:29:13.049Z,7.49
2019-02-08T08:32:02.681Z,7.44
2019-02-08T08:39:04.599Z,7.41
2019-02-08T08:42:33.054Z,7.48
2019-02-08T08:49:40.378Z,7.46
2019-02-08T08:52:42.042Z,7.50
2019-02-08T08:56:10.524Z,7.44
2019-02-08T09:03:20.035Z,7.56
2019-02-08T09:09:46.631Z,7.71
2019-02-08T09:13:15.211Z,7.81
2019-02-08T09:16:17.017Z,7.80
2019-02-08T09:19:45.423Z,7.84
2019-02-08T09:22:46.962Z,8.05
2019-02-08T09:26:00.774Z,8.53
2019-02-08T09:29:08.478Z,8.49
2019-02-08T09:32:36.866Z,8.45
2019-02-08T09:35:38.553Z,8.48
2019-02-08T09:39:06.972Z,8.51
2019-02-08T09:42:09.420Z,8.49
2019-02-08T09:45:37.846Z,8.24
2019-02-08T09:48:47.562Z,8.21
2019-02-08T09:52:15.960Z,8.23
2019-02-08T09:55:18.376Z,8.13
2019-02-08T09:58:46.792Z,8.22
2019-02-08T10:01:49.245Z,8.32
2019-02-08T10:09:21.147Z,8.33
2019-02-08T10:12:26.262Z,8.37
2019-02-08T10:15:28.183Z,8.46
2019-02-08T10:18:56.628Z,8.61
2019-02-08T10:21:59.049Z,8.72
2019-02-08T10:29:12.554Z,8.81
2019-02-08T10:32:40.996Z,8.85
2019-02-08T10:35:46.508Z,8.81
2019-02-08T10:39:14.958Z,8.63
2019-02-08T10:42:17.480Z,8.60
2019-02-08T10:49:25.666Z,8.69
2019-02-08T10:52:54.150Z,8.55
2019-02-08T10:55:55.995Z,8.50
2019-02-08T10:59:24.421Z,8.44
2019-02-08T11:02:26.557Z,8.56
2019-02-08T11:05:55.044Z,8.57
2019-02-08T11:08:56.619Z,8.48
2019-02-08T11:12:25.027Z,8.43
2019-02-08T11:19:16.767Z,8.65
2019-02-08T11:21:59.951Z,8.61
2019-02-08T11:24:50.285Z,8.59
2019-02-08T11:27:33.203Z,8.82
2019-02-08T11:30:23.562Z,9.12
2019-02-08T11:33:06.913Z,9.29
2019-02-08T11:35:57.265Z,9.28
2019-02-08T11:38:40.554Z,9.40
2019-02-08T11:41:30.949Z,9.20
2019-02-08T11:44:13.446Z,9.25
2019-02-08T11:47:03.933Z,9.36
2019-02-08T11:49:47.055Z,9.31
2019-02-08T11:52:37.429Z,9.30
2019-02-08T11:55:20.253Z,9.25
2019-02-08T11:58:10.621Z,9.20
2019-02-08T12:00:55.438Z,9.25
2019-02-08T12:03:45.846Z,9.23
2019-02-08T12:06:28.477Z,9.37
2019-02-08T12:09:19.239Z,9.35
2019-02-08T12:12:02.545Z,9.48
2019-02-08T12:14:52.906Z,9.43
2019-02-08T12:17:35.688Z,9.33
2019-02-08T12:20:26.405Z,9.44
2019-02-08T12:23:09.457Z,9.44
2019-02-08T12:25:59.771Z,9.50
2019-02-08T12:28:42.355Z,9.58
2019-02-08T12:31:32.866Z,9.58
2019-02-08T12:34:15.549Z,9.77
2019-02-08T12:37:05.972Z,9.77
2019-02-08T12:39:49.826Z,9.75
2019-02-08T12:42:40.163Z,9.65
2019-02-08T12:45:30.509Z,9.58
2019-02-08T12:48:20.829Z,9.43
2019-02-08T12:51:04.448Z,9.38
2019-02-08T12:53:54.751Z,9.36
2019-02-08T12:56:45.846Z,9.30
2019-02-08T12:59:50.172Z,9.22
2019-02-08T13:02:40.602Z,9.34
2019-02-08T13:05:23.845Z,9.25
2019-02-08T13:08:14.172Z,9.36
2019-02-08T13:10:57.063Z,9.45
2019-02-08T13:13:47.467Z,9.37
2019-02-08T13:16:38.590Z,9.46
2019-02-08T13:19:28.936Z,9.53
2019-02-08T13:22:19.286Z,9.54
2019-02-08T13:25:22.497Z,9.62
2019-02-08T13:28:12.842Z,9.55
2019-02-08T13:31:15.893Z,9.59
2019-02-08T13:34:06.621Z,9.57
2019-02-08T13:36:49.718Z,9.60
2019-02-08T13:39:40.072Z,9.63
2019-02-08T13:42:43.361Z,9.59
2019-02-08T13:45:33.740Z,9.62
2019-02-08T13:48:17.087Z,9.58
2019-02-08T13:51:07.412Z,9.56
2019-02-08T13:53:49.960Z,9.61
2019-02-08T13:56:32.912Z,9.65
2019-02-08T13:59:23.221Z,9.67
2019-02-08T14:02:06.490Z,9.63
2019-02-08T14:04:56.830Z,9.60
2019-02-08T14:07:40.258Z,9.52
2019-02-08T14:10:30.619Z,9.58
2019-02-08T14:13:13.880Z,9.58
2019-02-08T14:16:04.345Z,9.52
2019-02-08T14:22:03.194Z,9.33
2019-02-08T14:24:53.635Z,9.22
2019-02-08T14:27:36.501Z,9.18
2019-02-08T14:33:57.880Z,9.13
2019-02-08T14:36:48.241Z,9.08
2019-02-08T14:39:38.595Z,9.05
2019-02-08T14:42:41.841Z,9.09
2019-02-08T14:45:32.162Z,9.04
2019-02-08T14:48:15.624Z,9.05
2019-02-08T14:51:06.075Z,9.07
2019-02-08T14:53:49.049Z,9.08
2019-02-08T14:56:39.445Z,9.03
2019-02-08T14:59:22.619Z,9.01
2019-02-08T15:02:12.975Z,9.00
2019-02-08T15:04:55.956Z,9.02
2019-02-08T15:07:46.307Z,9.03
2019-02-08T15:10:30.463Z,9.02
2019-02-08T15:13:13.254Z,9.04
2019-02-08T15:16:03.588Z,8.95
2019-02-08T15:18:46.332Z,9.03
2019-02-08T15:21:36.746Z,9.03
2019-02-08T15:24:19.756Z,9.00
2019-02-08T15:27:10.124Z,8.97
2019-02-08T15:29:53.630Z,8.89
2019-02-08T15:32:44.105Z,8.93
2019-02-08T15:35:45.058Z,8.93
2019-02-08T15:38:35.405Z,8.95
2019-02-08T15:41:18.914Z,8.95
2019-02-08T15:44:09.248Z,8.94
2019-02-08T15:46:51.804Z,8.93
2019-02-08T15:49:42.245Z,8.94
2019-02-08T15:52:25.355Z,8.92
2019-02-08T15:55:09.875Z,8.92
2019-02-08T15:58:00.238Z,8.90
2019-02-08T16:00:43.363Z,8.86
2019-02-08T16:03:33.729Z,8.86
2019-02-08T16:06:17.263Z,8.89
2019-02-08T16:12:57.600Z,8.88
2019-02-08T16:15:48.083Z,8.92
2019-02-08T16:18:38.471Z,8.85
2019-02-08T16:21:21.408Z,8.91
2019-02-08T16:24:11.871Z,8.88
2019-02-08T16:26:55.291Z,8.87
2019-02-08T16:29:46.269Z,8.96
2019-02-08T16:32:28.845Z,8.93
2019-02-08T16:38:49.202Z,8.93
2019-02-08T16:41:39.559Z,8.89
2019-02-08T16:44:22.450Z,8.91
2019-02-08T16:47:12.922Z,8.93
2019-02-08T16:49:55.584Z,8.85
2019-02-08T16:52:45.972Z,8.89
2019-02-08T16:55:29.411Z,8.90
2019-02-08T16:58:19.789Z,8.93
2019-02-08T17:01:02.347Z,8.88
2019-02-08T17:03:52.746Z,8.90
2019-02-08T17:06:36.053Z,8.85
2019-02-08T17:09:26.438Z,8.87
2019-02-08T17:12:09.749Z,8.77
2019-02-08T17:15:00.221Z,8.82
2019-02-08T17:17:43.567Z,8.81
2019-02-08T17:21:14.355Z,8.88
2019-02-08T17:23:56.965Z,8.86
2019-02-08T17:26:47.398Z,8.80
2019-02-08T17:29:29.966Z,8.84
2019-02-08T17:32:20.326Z,8.83
2019-02-08T17:35:04.180Z,8.83
2019-02-08T17:37:47.488Z,8.79
2019-02-08T17:40:39.854Z,8.85
2019-02-08T17:43:23.164Z,8.83
2019-02-08T17:46:13.516Z,8.80
2019-02-08T17:48:56.897Z,8.87
2019-02-08T17:55:14.725Z,8.89
2019-02-08T17:58:05.286Z,8.96
2019-02-08T18:00:57.728Z,8.94
2019-02-08T18:03:40.395Z,8.99
2019-02-08T18:06:30.709Z,8.94
2019-02-08T18:09:13.660Z,9.00
2019-02-08T18:12:04.007Z,9.04
2019-02-08T18:14:47.247Z,9.00
2019-02-08T18:17:37.646Z,9.01
2019-02-08T18:20:21.637Z,9.06
2019-02-08T18:26:40.421Z,9.01
2019-02-08T18:29:30.790Z,9.10
2019-02-08T18:32:13.806Z,9.11
2019-02-08T18:38:32.501Z,9.09
2019-02-08T18:41:22.855Z,9.12
2019-02-08T18:44:06.177Z,9.06
2019-02-08T18:46:56.554Z,9.14
2019-02-08T18:49:39.503Z,9.21
2019-02-08T18:52:29.884Z,9.12
2019-02-08T18:55:12.819Z,9.15
2019-02-08T18:57:55.604Z,9.16
2019-02-08T19:00:48.287Z,9.10
2019-02-08T19:03:31.490Z,9.18
2019-02-08T19:06:21.879Z,9.18
2019-02-08T19:09:05.911Z,9.12
2019-02-08T19:11:56.302Z,9.13
2019-02-08T19:14:39.667Z,9.07
2019-02-08T19:17:30.029Z,9.05
2019-02-08T19:20:13.647Z,9.02
2019-02-08T19:23:04.080Z,8.98
2019-02-08T19:25:47.506Z,8.96
2019-02-08T19:28:37.865Z,9.04
2019-02-08T19:31:20.607Z,9.04
2019-02-08T19:34:10.967Z,9.06
2019-02-08T19:36:54.463Z,9.00
2019-02-08T19:39:44.817Z,9.09
2019-02-08T19:42:28.257Z,9.10
2019-02-08T19:45:18.866Z,9.08
2019-02-08T19:48:02.308Z,9.08
2019-02-08T19:50:52.733Z,9.09
2019-02-08T19:53:35.836Z,9.10
2019-02-08T19:56:26.205Z,9.06
2019-02-08T19:59:09.060Z,9.13
2019-02-08T20:01:59.434Z,9.10
2019-02-08T20:04:42.434Z,9.15
2019-02-08T20:07:34.461Z,9.05
2019-02-08T20:10:37.908Z,9.17
2019-02-08T20:13:28.357Z,9.08
2019-02-08T20:16:11.774Z,9.10
2019-02-08T20:19:02.128Z,9.16
2019-02-08T20:21:45.457Z,9.17
2019-02-08T20:24:35.856Z,9.20
2019-02-08T20:27:18.932Z,9.24
2019-02-08T20:30:12.077Z,9.20
2019-02-08T20:33:02.629Z,9.28
2019-02-08T20:35:46.064Z,9.34
2019-02-08T20:41:53.620Z,9.36
2019-02-08T20:44:38.837Z,9.37
2019-02-08T20:47:29.771Z,9.28
2019-02-08T20:50:13.678Z,9.33
2019-02-08T20:56:34.272Z,9.35
2019-02-08T20:59:25.224Z,9.34
2019-02-08T21:02:08.693Z,9.33
2019-02-08T21:04:59.675Z,9.27
2019-02-08T21:07:43.753Z,9.20
2019-02-08T21:10:35.255Z,9.22
2019-02-08T21:13:19.495Z,9.23
2019-02-08T21:16:21.214Z,9.28
2019-02-08T21:19:12.184Z,9.20
2019-02-08T21:21:55.539Z,9.13
2019-02-08T21:24:46.519Z,9.10
2019-02-08T21:27:29.943Z,9.00
2019-02-08T21:30:20.895Z,9.01
2019-02-08T21:33:05.440Z,9.00
2019-02-08T21:35:56.434Z,8.92
2019-02-08T21:38:39.623Z,8.93
2019-02-08T21:41:30.561Z,8.90
2019-02-08T21:44:14.170Z,8.89
2019-02-08T21:47:05.021Z,8.90
2019-02-08T21:49:48.338Z,8.92
2019-02-08T21:52:39.263Z,8.86
2019-02-08T21:55:23.382Z,8.87
2019-02-08T21:58:14.286Z,8.87
2019-02-08T22:00:58.072Z,8.89
2019-02-08T22:03:48.981Z,8.88
2019-02-08T22:06:32.686Z,8.93
2019-02-08T22:09:23.601Z,8.93
2019-02-08T22:12:07.245Z,8.97
2019-02-08T22:14:58.187Z,8.97
2019-02-08T22:17:41.968Z,8.93
2019-02-08T22:20:32.915Z,9.00
2019-02-08T22:23:16.617Z,8.98
2019-02-08T22:26:07.496Z,8.96
2019-02-08T22:28:51.363Z,9.03
2019-02-08T22:31:42.257Z,9.06
2019-02-08T22:34:26.263Z,9.03
2019-02-08T22:37:10.306Z,9.04
2019-02-08T22:40:01.215Z,9.07
2019-02-08T22:42:44.346Z,9.04
2019-02-08T22:45:36.936Z,9.04
2019-02-08T22:48:20.130Z,9.03
2019-02-08T22:51:11.060Z,9.03
2019-02-08T22:53:54.842Z,9.02
2019-02-08T22:56:45.706Z,9.01
2019-02-08T22:59:29.386Z,9.08
2019-02-08T23:02:12.975Z,9.04
2019-02-08T23:08:32.962Z,9.00
2019-02-08T23:14:16.895Z,8.79
2019-02-08T23:17:07.806Z,8.55
2019-02-08T23:19:50.993Z,8.42
2019-02-08T23:22:41.943Z,8.27
2019-02-08T23:25:25.060Z,8.04
2019-02-08T23:28:16.003Z,7.99
2019-02-08T23:30:59.614Z,7.81
2019-02-08T23:33:50.552Z,7.68
2019-02-08T23:36:33.923Z,7.61
2019-02-08T23:39:24.230Z,7.58
2019-02-08T23:42:07.299Z,7.54
2019-02-08T23:44:57.696Z,7.48
2019-02-08T23:47:41.197Z,7.55
2019-02-08T23:50:31.549Z,7.52
2019-02-08T23:53:14.076Z,7.53
2019-02-08T23:55:56.711Z,7.52
2019-02-08T23:58:47.057Z,7.57
